Time;durP1;ratioP1;P1;durP2;ratioP2;P2;SDS_P1;SDS_P2;PMS_P1;PMS_P2;Temp;Humidity;BMP_temperature;BMP_pressure;BME280_temperature;BME280_humidity;BME280_pressure;Samples;Min_cycle;Max_cycle;Signal;HPM_P1;HPM_P2
2021/10/08 00:01:39;;;;;;;2.50;2.33;;;17.90;68.20;;;;;;5052710;28;20171;-66
2021/10/08 00:04:05;;;;;;;2.10;2.00;;;17.90;68.10;;;;;;5052842;28;20225;-65
2021/10/08 00:06:30;;;;;;;2.70;2.50;;;17.90;68.20;;;;;;5053213;28;20171;-66
2021/10/08 00:08:56;;;;;;;2.38;2.20;;;17.90;69.00;;;;;;5052181;28;20171;-68
2021/10/08 00:11:22;;;;;;;2.42;2.25;;;17.90;68.10;;;;;;5053302;28;20227;-68
2021/10/08 00:13:47;;;;;;;3.20;2.92;;;17.90;68.10;;;;;;5053218;28;20175;-68
2021/10/08 00:16:13;;;;;;;2.70;2.50;;;17.80;68.10;;;;;;5052299;28;20221;-67
2021/10/08 00:18:38;;;;;;;2.40;2.20;;;17.90;68.20;;;;;;5052904;28;20178;-67
2021/10/08 00:21:04;;;;;;;2.85;2.30;;;17.80;68.00;;;;;;5052610;28;20309;-67
2021/10/08 00:23:30;;;;;;;2.58;2.30;;;17.80;68.10;;;;;;5051935;28;20231;-66
2021/10/08 00:25:55;;;;;;;2.05;1.95;;;17.90;68.10;;;;;;5052763;28;20182;-66
2021/10/08 00:28:21;;;;;;;2.85;2.25;;;17.80;68.10;;;;;;5052998;28;20170;-66
2021/10/08 00:30:46;;;;;;;2.50;2.30;;;17.80;68.00;;;;;;5052201;28;20170;-67
2021/10/08 00:33:12;;;;;;;2.30;2.20;;;17.80;68.10;;;;;;5052491;28;20171;-66
2021/10/08 00:35:37;;;;;;;2.88;2.67;;;17.80;68.00;;;;;;5052628;28;20661;-67
2021/10/08 00:38:04;;;;;;;3.05;2.45;;;17.80;68.10;;;;;;5051950;28;20270;-67
2021/10/08 00:40:35;;;;;;;2.55;2.35;;;17.80;68.10;;;;;;5052862;28;20175;-66
2021/10/08 00:43:01;;;;;;;2.63;2.42;;;17.80;68.10;;;;;;5052539;28;20170;-66
2021/10/08 00:45:26;;;;;;;2.38;2.17;;;17.80;68.10;;;;;;5050997;28;20584;-66
2021/10/08 00:48:00;;;;;;;2.40;2.20;;;17.70;68.00;;;;;;5052248;28;20645;-66
2021/10/08 00:50:25;;;;;;;2.58;2.40;;;17.80;68.10;;;;;;5052627;28;20540;-66
2021/10/08 00:52:51;;;;;;;2.20;2.10;;;17.80;68.10;;;;;;5051835;28;20171;-67
2021/10/08 00:55:16;;;;;;;2.40;2.00;;;17.70;68.10;;;;;;5052385;28;20214;-67
2021/10/08 00:57:43;;;;;;;2.30;2.20;;;17.70;68.10;;;;;;5052709;28;20171;-65
2021/10/08 01:00:09;;;;;;;2.40;2.20;;;17.70;68.10;;;;;;5036859;28;20221;-66
2021/10/08 01:02:34;;;;;;;1.90;1.80;;;17.70;68.10;;;;;;5056461;28;20179;-65
2021/10/08 01:05:00;;;;;;;2.13;2.03;;;17.70;68.10;;;;;;5055722;28;20183;-66
2021/10/08 01:07:25;;;;;;;1.98;1.88;;;17.70;68.10;;;;;;5056546;28;20171;-67
2021/10/08 01:09:51;;;;;;;2.00;1.90;;;17.70;68.10;;;;;;5056077;28;20182;-68
2021/10/08 01:12:17;;;;;;;2.42;2.25;;;17.70;68.10;;;;;;5055721;28;20662;-68
2021/10/08 01:14:42;;;;;;;2.47;2.38;;;17.70;68.10;;;;;;5056265;28;20297;-67
2021/10/08 01:17:15;;;;;;;2.20;2.10;;;17.70;68.20;;;;;;5056034;28;20171;-67
2021/10/08 01:19:41;;;;;;;2.38;2.10;;;17.70;68.10;;;;;;5055802;28;20241;-66
2021/10/08 01:22:06;;;;;;;2.67;2.47;;;17.70;68.20;;;;;;5056167;28;20625;-66
2021/10/08 01:24:32;;;;;;;2.38;2.17;;;17.70;68.20;;;;;;5056005;28;20564;-66
2021/10/08 01:26:57;;;;;;;2.45;2.15;;;17.70;68.10;;;;;;5055117;28;20179;-66
2021/10/08 01:29:23;;;;;;;2.20;2.10;;;17.70;68.20;;;;;;5056126;28;20171;-66
2021/10/08 01:31:48;;;;;;;1.77;1.67;;;17.60;68.10;;;;;;5055627;28;20179;-66
2021/10/08 01:34:13;;;;;;;2.55;2.35;;;17.70;69.00;;;;;;5055360;28;20199;-67
2021/10/08 01:36:39;;;;;;;2.50;2.30;;;17.60;68.10;;;;;;5055951;28;20256;-67
2021/10/08 01:39:05;;;;;;;2.53;2.35;;;17.60;68.10;;;;;;5055793;28;20601;-66
2021/10/08 01:41:30;;;;;;;2.33;2.17;;;17.60;68.90;;;;;;5055154;28;20241;-66
2021/10/08 01:43:55;;;;;;;2.70;2.50;;;17.60;68.10;;;;;;5055458;28;20175;-66
2021/10/08 01:46:21;;;;;;;2.25;2.15;;;17.60;68.10;;;;;;5055779;28;20638;-66
2021/10/08 01:48:47;;;;;;;2.53;2.22;;;17.60;68.10;;;;;;5055163;28;20182;-66
2021/10/08 01:51:12;;;;;;;2.15;2.05;;;17.60;68.10;;;;;;5055324;28;20202;-67
2021/10/08 01:53:38;;;;;;;2.40;2.25;;;17.60;68.10;;;;;;5055721;28;20218;-67
2021/10/08 01:56:03;;;;;;;2.15;1.95;;;17.60;68.20;;;;;;5054584;28;20261;-66
2021/10/08 01:58:29;;;;;;;1.88;1.77;;;17.60;68.10;;;;;;5055388;28;20178;-66
2021/10/08 02:00:54;;;;;;;2.50;2.30;;;17.60;68.10;;;;;;5055354;28;20206;-66
2021/10/08 02:03:20;;;;;;;2.30;2.20;;;17.60;68.10;;;;;;5054993;28;20246;-65
2021/10/08 02:05:45;;;;;;;2.35;2.13;;;17.60;68.10;;;;;;5055537;28;20179;-66
2021/10/08 02:08:11;;;;;;;2.42;2.30;;;17.60;68.20;;;;;;5054543;28;20179;-68
2021/10/08 02:10:36;;;;;;;1.90;1.80;;;17.60;68.10;;;;;;5054466;28;20175;-68
2021/10/08 02:13:02;;;;;;;2.30;2.10;;;17.60;68.20;;;;;;5055109;28;20638;-68
2021/10/08 02:15:27;;;;;;;2.50;2.30;;;17.50;68.10;;;;;;5054588;28;20202;-66
2021/10/08 02:17:53;;;;;;;2.30;2.10;;;17.60;68.20;;;;;;5054718;28;20171;-67
2021/10/08 02:20:18;;;;;;;2.30;2.20;;;17.60;68.20;;;;;;5055265;28;20229;-66
2021/10/08 02:22:46;;;;;;;2.00;1.90;;;17.50;68.10;;;;;;5054343;28;20175;-66
2021/10/08 02:25:12;;;;;;;2.05;1.95;;;17.50;68.10;;;;;;5054805;28;20258;-65
2021/10/08 02:27:37;;;;;;;2.00;1.90;;;17.50;68.10;;;;;;5055047;28;20190;-65
2021/10/08 02:30:04;;;;;;;2.20;2.10;;;17.50;68.10;;;;;;5053992;28;20592;-66
2021/10/08 02:32:29;;;;;;;1.80;1.70;;;17.50;68.10;;;;;;5054766;28;20167;-66
2021/10/08 02:34:55;;;;;;;2.20;2.10;;;17.50;68.20;;;;;;5054648;28;20229;-66
2021/10/08 02:37:20;;;;;;;1.95;1.85;;;17.50;68.10;;;;;;5054183;28;20163;-67
2021/10/08 02:39:46;;;;;;;1.95;1.85;;;17.50;68.10;;;;;;5054881;28;20171;-66
2021/10/08 02:42:11;;;;;;;2.33;2.13;;;17.50;68.10;;;;;;5054417;28;20264;-66
2021/10/08 02:44:37;;;;;;;1.95;1.85;;;17.50;68.10;;;;;;5053786;28;20541;-66
2021/10/08 02:47:02;;;;;;;2.35;2.25;;;17.50;68.10;;;;;;5054305;28;20171;-66
2021/10/08 02:49:29;;;;;;;2.00;1.90;;;17.50;68.20;;;;;;5054758;28;20269;-67
2021/10/08 02:51:55;;;;;;;2.03;1.92;;;17.40;68.00;;;;;;5053749;28;20171;-67
2021/10/08 02:54:20;;;;;;;1.92;1.83;;;17.50;68.10;;;;;;5054492;28;20257;-67
2021/10/08 02:56:46;;;;;;;2.10;1.90;;;17.50;68.10;;;;;;5054445;28;20270;-66
2021/10/08 02:59:11;;;;;;;2.08;1.98;;;17.50;68.10;;;;;;5053379;28;20198;-66
2021/10/08 03:01:37;;;;;;;2.20;2.00;;;17.40;68.10;;;;;;5054285;28;20532;-66
2021/10/08 03:04:04;;;;;;;1.83;1.73;;;17.50;68.20;;;;;;5053952;28;20171;-65
2021/10/08 03:06:30;;;;;;;1.95;1.85;;;17.40;68.10;;;;;;5053735;28;20595;-66
2021/10/08 03:08:56;;;;;;;1.90;1.80;;;17.40;68.10;;;;;;5054069;28;20214;-67
2021/10/08 03:11:25;;;;;;;2.15;1.90;;;17.40;68.00;;;;;;5054409;28;20183;-68
2021/10/08 03:13:51;;;;;;;1.75;1.52;;;17.40;68.10;;;;;;5053315;28;20233;-68
2021/10/08 03:16:16;;;;;;;2.20;2.10;;;17.40;68.00;;;;;;5054143;28;20210;-67
2021/10/08 03:18:42;;;;;;;1.67;1.58;;;17.40;68.00;;;;;;5053557;28;20646;-67
2021/10/08 03:21:07;;;;;;;1.98;1.85;;;17.40;68.10;;;;;;5053835;28;20186;-66
2021/10/08 03:23:33;;;;;;;2.28;1.80;;;17.40;68.10;;;;;;5053794;28;20238;-65
2021/10/08 03:25:58;;;;;;;2.13;1.95;;;17.40;68.10;;;;;;5053024;28;20175;-66
2021/10/08 03:28:24;;;;;;;1.88;1.77;;;17.40;68.10;;;;;;5053916;28;20702;-65
2021/10/08 03:30:49;;;;;;;1.95;1.85;;;17.40;68.10;;;;;;5053416;28;20688;-66
2021/10/08 03:33:15;;;;;;;1.85;1.75;;;17.40;68.10;;;;;;5053163;28;20251;-66
2021/10/08 03:35:43;;;;;;;2.25;2.15;;;17.30;68.10;;;;;;5053826;28;20207;-66
2021/10/08 03:38:16;;;;;;;2.10;1.90;;;17.40;68.10;;;;;;5053345;28;20625;-66
2021/10/08 03:40:45;;;;;;;2.50;2.33;;;17.40;68.10;;;;;;5053048;28;20179;-66
2021/10/08 03:43:13;;;;;;;2.00;1.90;;;17.30;68.10;;;;;;5053249;28;20194;-66
2021/10/08 03:45:48;;;;;;;2.20;2.05;;;17.40;68.10;;;;;;5053726;28;20233;-65
2021/10/08 03:50:46;;;;;;;2.05;1.95;;;17.40;68.10;;;;;;5053657;28;20167;-67
2021/10/08 03:53:11;;;;;;;2.10;2.00;;;17.30;68.10;;;;;;5053100;28;20179;-67
2021/10/08 03:55:37;;;;;;;2.10;2.00;;;17.30;68.00;;;;;;5052438;28;20211;-68
2021/10/08 03:58:02;;;;;;;1.85;1.75;;;17.30;68.10;;;;;;5052973;28;20529;-67
2021/10/08 04:00:28;;;;;;;2.15;2.05;;;17.30;68.00;;;;;;5053424;28;20622;-66
2021/10/08 04:02:55;;;;;;;2.30;2.10;;;17.30;68.10;;;;;;5052308;28;20321;-65
2021/10/08 04:05:21;;;;;;;1.50;1.42;;;17.30;68.10;;;;;;5053315;28;20183;-66
2021/10/08 04:07:46;;;;;;;1.77;1.67;;;17.30;68.00;;;;;;5052488;28;20541;-67
2021/10/08 04:10:12;;;;;;;2.10;2.00;;;17.30;68.00;;;;;;5052562;28;20233;-69
2021/10/08 04:12:37;;;;;;;2.20;2.10;;;17.30;68.00;;;;;;5053229;28;20229;-68
2021/10/08 04:15:03;;;;;;;2.25;2.00;;;17.30;68.00;;;;;;5052091;28;20206;-68
2021/10/08 04:17:29;;;;;;;2.05;1.95;;;17.30;68.10;;;;;;5053353;28;20258;-67
2021/10/08 04:19:54;;;;;;;2.00;1.90;;;17.30;68.00;;;;;;5052882;28;20625;-67
2021/10/08 04:22:20;;;;;;;2.08;1.95;;;17.30;68.00;;;;;;5052329;28;20178;-67
2021/10/08 04:24:45;;;;;;;2.30;2.20;;;17.30;68.10;;;;;;5052675;28;20218;-66
2021/10/08 04:27:11;;;;;;;2.20;2.10;;;17.30;68.10;;;;;;5052642;28;20171;-66
2021/10/08 04:29:36;;;;;;;2.55;2.35;;;17.30;68.10;;;;;;5051976;28;20260;-66
2021/10/08 04:32:02;;;;;;;2.22;2.10;;;17.20;68.00;;;;;;5052671;28;20168;-67
2021/10/08 04:34:27;;;;;;;2.10;2.00;;;17.20;68.00;;;;;;5052344;28;20261;-67
2021/10/08 04:36:53;;;;;;;2.10;2.00;;;17.20;68.00;;;;;;5051763;28;20178;-67
2021/10/08 04:39:18;;;;;;;2.10;1.90;;;17.20;68.00;;;;;;5052686;28;20167;-67
2021/10/08 04:41:44;;;;;;;2.17;2.08;;;17.20;68.00;;;;;;5052838;28;20163;-66
2021/10/08 04:44:09;;;;;;;2.00;1.90;;;17.20;68.00;;;;;;5051655;28;20179;-66
2021/10/08 04:46:35;;;;;;;2.00;1.90;;;17.20;68.00;;;;;;5052882;28;20201;-66
2021/10/08 04:49:00;;;;;;;2.15;1.98;;;17.20;68.00;;;;;;5052537;28;20175;-66
2021/10/08 04:51:26;;;;;;;2.42;2.22;;;17.20;68.00;;;;;;5051874;28;20186;-67
2021/10/08 04:53:51;;;;;;;1.95;1.85;;;17.20;68.00;;;;;;5052302;28;20171;-67
2021/10/08 04:56:17;;;;;;;2.15;2.05;;;17.20;68.00;;;;;;5052690;28;20784;-67
2021/10/08 04:58:42;;;;;;;2.00;1.90;;;17.20;68.00;;;;;;5051990;28;20645;-66
2021/10/08 05:01:08;;;;;;;1.95;1.85;;;17.20;68.00;;;;;;5052361;28;20179;-65
2021/10/08 05:03:33;;;;;;;2.30;2.10;;;17.20;68.00;;;;;;5052679;28;20213;-65
2021/10/08 05:05:59;;;;;;;2.63;2.42;;;17.20;68.00;;;;;;5051566;28;20252;-66
2021/10/08 05:08:24;;;;;;;2.10;2.00;;;17.20;67.90;;;;;;5052351;28;20229;-67
2021/10/08 05:10:50;;;;;;;2.05;1.90;;;17.20;67.90;;;;;;5052024;28;20645;-69
2021/10/08 05:13:16;;;;;;;2.25;2.15;;;17.20;68.00;;;;;;5051642;28;20179;-68
2021/10/08 05:15:41;;;;;;;2.10;2.00;;;17.20;68.10;;;;;;5052433;28;20211;-68
2021/10/08 05:18:07;;;;;;;1.80;1.70;;;17.30;68.10;;;;;;5051331;28;20921;-67
2021/10/08 05:20:32;;;;;;;1.90;1.80;;;17.40;68.00;;;;;;5052320;28;20220;-67
2021/10/08 05:22:58;;;;;;;1.95;1.85;;;17.50;67.80;;;;;;5051958;28;20216;-66
2021/10/08 05:25:23;;;;;;;1.75;1.65;;;17.60;67.70;;;;;;5051634;28;20294;-65
2021/10/08 05:27:49;;;;;;;1.70;1.60;;;17.70;67.40;;;;;;5052191;28;20656;-66
2021/10/08 05:30:14;;;;;;;1.88;1.77;;;17.80;67.30;;;;;;5052420;28;20552;-66
2021/10/08 05:32:40;;;;;;;1.75;1.65;;;17.90;67.00;;;;;;5051558;28;20562;-66
2021/10/08 05:35:07;;;;;;;1.80;1.70;;;18.00;66.70;;;;;;5052022;28;20588;-67
2021/10/08 05:37:32;;;;;;;2.10;2.00;;;18.10;66.50;;;;;;5052113;28;20178;-66
2021/10/08 05:39:58;;;;;;;1.77;1.67;;;18.20;66.20;;;;;;5051379;28;20175;-66
2021/10/08 05:42:23;;;;;;;1.67;1.58;;;18.30;66.00;;;;;;5052283;28;20163;-66
2021/10/08 05:44:49;;;;;;;2.47;1.65;;;18.40;65.90;;;;;;5052077;28;20202;-66
2021/10/08 05:47:14;;;;;;;1.80;1.70;;;18.40;65.70;;;;;;5053928;28;20529;-66
2021/10/08 05:49:40;;;;;;;1.38;1.35;;;18.60;65.40;;;;;;5055875;28;20175;-67
2021/10/08 05:52:05;;;;;;;1.80;1.70;;;18.70;65.10;;;;;;5055324;28;20179;-68
2021/10/08 05:54:31;;;;;;;1.60;1.50;;;18.80;64.80;;;;;;5055088;28;20203;-68
2021/10/08 05:56:56;;;;;;;1.48;1.38;;;18.80;64.60;;;;;;5055437;28;20171;-66
2021/10/08 05:59:22;;;;;;;1.63;1.52;;;18.80;64.60;;;;;;5055511;28;20179;-66
2021/10/08 06:01:47;;;;;;;1.70;1.60;;;18.70;64.70;;;;;;5054569;28;20704;-65
2021/10/08 06:04:13;;;;;;;1.40;1.30;;;18.70;64.90;;;;;;5055390;28;20175;-66
2021/10/08 06:06:38;;;;;;;1.50;1.40;;;18.60;65.00;;;;;;5055354;28;20217;-67
2021/10/08 06:09:04;;;;;;;1.52;1.42;;;18.60;65.20;;;;;;5054643;28;20179;-68
2021/10/08 06:11:30;;;;;;;1.65;1.55;;;18.50;65.40;;;;;;5055627;28;20164;-68
2021/10/08 06:13:56;;;;;;;1.60;1.50;;;18.40;65.40;;;;;;5055282;28;20175;-68
2021/10/08 06:16:21;;;;;;;1.60;1.50;;;18.40;65.80;;;;;;5054515;28;20580;-67
2021/10/08 06:18:46;;;;;;;1.25;1.25;;;18.30;65.80;;;;;;5055046;28;20225;-66
2021/10/08 06:21:12;;;;;;;1.50;1.40;;;18.30;66.00;;;;;;5054746;28;20599;-66
2021/10/08 06:23:37;;;;;;;1.90;1.80;;;18.20;66.00;;;;;;5054538;28;20223;-66
2021/10/08 06:26:03;;;;;;;1.33;1.23;;;18.20;66.30;;;;;;5054887;28;20194;-66
2021/10/08 06:28:28;;;;;;;1.65;1.55;;;18.10;66.30;;;;;;5054213;28;20182;-65
2021/10/08 06:30:54;;;;;;;1.40;1.30;;;18.00;66.40;;;;;;5054718;28;20522;-66
2021/10/08 06:33:19;;;;;;;1.60;1.50;;;18.00;66.60;;;;;;5054982;28;20533;-66
2021/10/08 06:35:46;;;;;;;1.60;1.50;;;18.00;66.60;;;;;;5054222;28;20757;-66
2021/10/08 06:38:12;;;;;;;1.60;1.50;;;17.90;66.70;;;;;;5054473;28;20262;-66
2021/10/08 06:40:37;;;;;;;1.63;1.52;;;17.90;66.80;;;;;;5054945;28;20179;-66
2021/10/08 06:43:04;;;;;;;1.90;1.70;;;17.90;66.90;;;;;;5053809;28;20167;-66
2021/10/08 06:45:29;;;;;;;1.55;1.45;;;17.80;67.00;;;;;;5054831;28;20261;-65
2021/10/08 06:47:55;;;;;;;1.50;1.40;;;17.80;67.10;;;;;;5054250;28;20269;-65
2021/10/08 06:50:20;;;;;;;1.27;1.20;;;17.80;67.10;;;;;;5053931;28;20241;-67
2021/10/08 06:52:46;;;;;;;1.40;1.40;;;17.80;67.20;;;;;;5054726;28;20176;-67
2021/10/08 06:55:11;;;;;;;1.80;1.70;;;17.80;67.20;;;;;;5054399;28;20211;-67
2021/10/08 06:57:37;;;;;;;1.50;1.40;;;17.80;67.10;;;;;;5053492;28;20248;-66
2021/10/08 07:00:03;;;;;;;1.52;1.42;;;17.90;67.10;;;;;;5054040;28;20191;-65
2021/10/08 07:02:29;;;;;;;1.50;1.40;;;17.90;67.10;;;;;;5054465;28;20175;-65
2021/10/08 07:04:54;;;;;;;1.50;1.40;;;17.90;67.10;;;;;;5053300;28;20167;-65
2021/10/08 07:07:20;;;;;;;1.70;1.60;;;17.90;67.10;;;;;;5054289;28;20167;-66
2021/10/08 07:09:45;;;;;;;1.55;1.45;;;17.80;67.00;;;;;;5054230;28;20536;-68
2021/10/08 07:12:11;;;;;;;1.58;1.48;;;17.80;67.10;;;;;;5053311;28;20179;-68
2021/10/08 07:14:37;;;;;;;1.55;1.45;;;17.80;67.10;;;;;;5054141;28;20194;-67
2021/10/08 07:17:03;;;;;;;1.70;1.60;;;17.80;67.20;;;;;;5053953;28;20237;-67
2021/10/08 07:19:30;;;;;;;1.65;1.55;;;17.80;67.20;;;;;;5053331;28;20175;-66
2021/10/08 07:21:55;;;;;;;1.50;1.40;;;17.80;67.20;;;;;;5053585;28;20225;-65
2021/10/08 07:24:21;;;;;;;1.80;1.70;;;17.90;67.20;;;;;;5053763;28;20223;-68
2021/10/08 07:26:46;;;;;;;1.50;1.40;;;17.90;67.20;;;;;;5053467;28;20179;-65
2021/10/08 07:29:12;;;;;;;1.48;1.38;;;17.90;67.30;;;;;;5053779;28;20221;-65
2021/10/08 07:31:37;;;;;;;2.65;1.85;;;17.90;67.40;;;;;;5053776;28;20183;-61
2021/10/08 07:34:03;;;;;;;2.53;1.70;;;17.90;67.50;;;;;;5052802;28;20649;-61
2021/10/08 07:36:28;;;;;;;2.38;1.70;;;17.90;67.30;;;;;;5053476;28;20250;-63
2021/10/08 07:38:54;;;;;;;3.25;2.40;;;17.90;67.20;;;;;;5052723;28;20163;-64
2021/10/08 07:41:19;;;;;;;2.13;1.92;;;17.90;67.20;;;;;;5053760;28;20217;-65
2021/10/08 07:43:45;;;;;;;4.85;2.75;;;17.90;67.20;;;;;;5053330;28;20189;-65
2021/10/08 07:46:10;;;;;;;4.75;2.45;;;17.90;67.90;;;;;;5052662;28;20626;-66
2021/10/08 07:48:37;;;;;;;5.13;2.50;;;17.90;67.50;;;;;;5053582;28;20299;-66
2021/10/08 07:51:02;;;;;;;3.90;3.17;;;17.80;67.10;;;;;;5053605;28;20576;-66
2021/10/08 07:53:28;;;;;;;4.55;2.70;;;17.80;67.00;;;;;;5060115;28;20640;-66
2021/10/08 07:55:53;;;;;;;5.82;2.85;;;17.80;66.90;;;;;;5067299;28;20214;-66
2021/10/08 07:58:26;;;;;;;4.05;3.25;;;17.80;66.90;;;;;;5073433;28;20232;-65
2021/10/08 08:00:52;;;;;;;3.60;3.08;;;17.80;66.90;;;;;;5032444;28;20187;-65
2021/10/08 08:03:17;;;;;;;4.47;2.67;;;17.80;67.00;;;;;;5033537;28;20533;-65
2021/10/08 08:05:43;;;;;;;2.60;2.40;;;17.80;67.00;;;;;;5033206;28;20204;-66
2021/10/08 08:08:09;;;;;;;3.67;2.45;;;17.80;67.00;;;;;;5051558;28;20173;-67
2021/10/08 08:10:34;;;;;;;3.00;2.63;;;17.80;66.90;;;;;;5072853;28;20206;-65
2021/10/08 08:13:00;;;;;;;2.40;2.20;;;17.80;66.80;;;;;;5072794;28;20170;-66
2021/10/08 08:15:25;;;;;;;3.28;2.47;;;17.80;66.90;;;;;;5072251;28;20240;-66
2021/10/08 08:17:51;;;;;;;2.92;2.60;;;17.80;67.00;;;;;;5072609;28;20167;-67
2021/10/08 08:20:16;;;;;;;2.78;2.42;;;17.80;66.80;;;;;;5072990;28;20185;-66
2021/10/08 08:22:42;;;;;;;2.75;2.55;;;17.80;66.90;;;;;;5072461;28;20167;-65
2021/10/08 08:25:08;;;;;;;4.10;2.33;;;17.80;67.00;;;;;;5063606;28;20187;-66
2021/10/08 08:27:33;;;;;;;3.00;2.67;;;17.80;67.10;;;;;;5052900;28;20167;-66
2021/10/08 08:29:59;;;;;;;2.80;2.22;;;17.80;67.10;;;;;;5051765;28;20171;-66
2021/10/08 08:32:27;;;;;;;2.92;2.72;;;17.80;67.10;;;;;;5052829;28;20171;-66
2021/10/08 08:34:52;;;;;;;2.30;2.10;;;17.80;67.00;;;;;;5052355;28;20211;-66
2021/10/08 08:37:18;;;;;;;3.28;2.53;;;17.80;66.90;;;;;;5051965;28;20175;-66
2021/10/08 08:39:45;;;;;;;4.22;2.97;;;17.90;66.90;;;;;;5052861;28;20634;-67
2021/10/08 08:42:10;;;;;;;2.55;2.35;;;17.80;66.90;;;;;;5051718;28;20179;-66
2021/10/08 08:44:36;;;;;;;3.80;2.22;;;17.90;66.90;;;;;;5052718;28;20183;-61
2021/10/08 08:47:02;;;;;;;3.30;2.70;;;17.90;67.00;;;;;;5052471;28;20220;-65
2021/10/08 08:49:27;;;;;;;4.85;2.60;;;17.90;66.90;;;;;;5051896;28;20539;-65
2021/10/08 08:51:53;;;;;;;3.42;2.80;;;17.90;66.80;;;;;;5051062;28;20510;-65
2021/10/08 08:54:18;;;;;;;4.38;2.72;;;18.00;66.80;;;;;;5052468;28;20190;-65
2021/10/08 08:56:44;;;;;;;3.00;2.50;;;18.00;66.70;;;;;;5051954;28;20194;-65
2021/10/08 08:59:10;;;;;;;3.25;2.95;;;18.20;66.70;;;;;;5060598;28;20180;-64
2021/10/08 09:01:56;;;;;;;3.90;2.53;;;18.30;66.70;;;;;;5072112;28;20580;-65
2021/10/08 09:04:24;;;;;;;2.70;2.50;;;18.40;66.60;;;;;;5071680;28;20178;-65
2021/10/08 09:06:49;;;;;;;5.45;2.47;;;18.50;66.40;;;;;;5072386;28;20512;-64
2021/10/08 09:09:17;;;;;;;3.17;2.60;;;18.70;66.20;;;;;;5072589;28;20167;-64
2021/10/08 09:11:42;;;;;;;2.38;2.10;;;18.80;66.00;;;;;;5071744;28;20535;-64
2021/10/08 09:14:14;;;;;;;3.70;2.67;;;18.90;65.70;;;;;;5072182;28;20175;-65
2021/10/08 09:17:03;;;;;;;2.97;2.67;;;19.00;65.20;;;;;;5072608;28;20193;-64
2021/10/08 09:19:44;;;;;;;2.33;2.13;;;19.00;65.00;;;;;;5070759;28;20174;-64
2021/10/08 09:22:09;;;;;;;3.20;2.85;;;19.10;64.80;;;;;;5076086;28;20181;-65
2021/10/08 09:24:35;;;;;;;2.45;2.25;;;19.30;64.40;;;;;;5075285;28;20210;-66
2021/10/08 09:27:11;;;;;;;2.58;2.35;;;19.40;63.90;;;;;;5075749;28;20656;-64
2021/10/08 09:29:36;;;;;;;3.00;2.70;;;19.50;63.60;;;;;;5076195;28;20203;-65
2021/10/08 09:32:02;;;;;;;4.85;2.50;;;19.60;63.30;;;;;;5075188;28;20615;-65
2021/10/08 09:34:27;;;;;;;2.65;2.20;;;19.60;63.00;;;;;;5076169;28;20605;-65
2021/10/08 09:37:13;;;;;;;4.18;2.80;;;19.70;62.90;;;;;;5075567;28;20174;-66
2021/10/08 09:39:39;;;;;;;3.95;2.85;;;19.70;62.80;;;;;;5075348;28;20170;-67
2021/10/08 09:42:11;;;;;;;3.35;3.05;;;19.60;62.90;;;;;;5075683;28;20181;-66
2021/10/08 09:44:44;;;;;;;4.07;2.90;;;19.60;63.00;;;;;;5075923;28;20175;-66
2021/10/08 09:47:21;;;;;;;3.55;3.20;;;19.50;63.00;;;;;;5075007;28;20170;-65
2021/10/08 09:49:48;;;;;;;3.42;3.13;;;19.50;63.00;;;;;;5075613;28;20265;-66
2021/10/08 09:52:24;;;;;;;4.90;3.22;;;19.40;63.10;;;;;;5075799;28;20184;-66
2021/10/08 09:54:50;;;;;;;5.45;3.40;;;19.40;63.10;;;;;;5074972;28;20213;-65
2021/10/08 09:57:16;;;;;;;5.13;3.40;;;19.40;63.20;;;;;;5055158;28;20451;-65
2021/10/08 09:59:41;;;;;;;3.95;3.22;;;19.40;63.10;;;;;;5062205;28;20175;-66
2021/10/08 10:02:07;;;;;;;3.92;3.35;;;19.40;63.20;;;;;;5055011;28;20579;-66
2021/10/08 10:04:55;;;;;;;4.88;3.50;;;19.40;64.20;;;;;;5055573;28;20174;-66
2021/10/08 10:07:22;;;;;;;3.75;3.38;;;19.30;63.40;;;;;;5054527;28;20266;-66
2021/10/08 10:09:48;;;;;;;4.22;3.70;;;19.30;63.70;;;;;;5054765;28;20588;-66
2021/10/08 10:12:15;;;;;;;4.40;4.00;;;19.20;63.80;;;;;;5055339;28;20207;-66
2021/10/08 10:14:44;;;;;;;5.07;4.55;;;19.20;63.80;;;;;;5054403;28;20215;-66
2021/10/08 10:17:10;;;;;;;5.18;4.68;;;19.30;63.70;;;;;;5053860;28;20195;-66
2021/10/08 10:19:43;;;;;;;6.88;4.85;;;19.30;63.80;;;;;;5055085;28;20201;-66
2021/10/08 10:22:10;;;;;;;6.90;5.38;;;19.30;64.00;;;;;;5054311;28;20178;-65
2021/10/08 10:24:36;;;;;;;5.22;4.72;;;19.30;64.10;;;;;;5037428;28;20231;-65
2021/10/08 10:27:01;;;;;;;6.75;4.82;;;19.20;64.00;;;;;;5037154;28;20225;-65
2021/10/08 10:29:27;;;;;;;5.43;4.85;;;19.30;64.20;;;;;;5054165;28;20179;-65
2021/10/08 10:31:52;;;;;;;6.75;4.80;;;19.30;64.30;;;;;;5052829;28;20199;-65
2021/10/08 10:34:18;;;;;;;5.83;4.60;;;19.30;64.30;;;;;;5053576;28;20167;-65
2021/10/08 10:36:43;;;;;;;5.90;5.28;;;19.30;64.30;;;;;;5035971;28;20546;-65
2021/10/08 10:39:12;;;;;;;7.50;5.68;;;19.40;64.20;;;;;;5054592;28;20229;-66
2021/10/08 10:41:38;;;;;;;7.93;5.03;;;19.30;64.30;;;;;;5054104;28;20189;-65
2021/10/08 10:44:32;;;;;;;6.40;5.35;;;19.40;64.20;;;;;;5054670;28;20653;-65
2021/10/08 10:47:15;;;;;;;6.13;5.38;;;19.30;64.30;;;;;;5054407;28;20199;-65
2021/10/08 10:49:50;;;;;;;7.65;5.75;;;19.30;64.30;;;;;;5054010;28;20535;-66
2021/10/08 10:52:17;;;;;;;8.20;5.97;;;19.40;64.40;;;;;;5054809;28;20174;-66
2021/10/08 10:54:53;;;;;;;6.38;5.60;;;19.30;64.30;;;;;;5054631;28;20210;-65
2021/10/08 10:57:19;;;;;;;10.75;6.80;;;19.30;64.30;;;;;;5053851;28;20225;-66
2021/10/08 10:59:44;;;;;;;8.98;5.82;;;19.40;64.30;;;;;;5067527;28;20182;-64
2021/10/08 11:02:16;;;;;;;8.52;6.15;;;19.40;64.40;;;;;;5074097;28;20166;-64
2021/10/08 11:04:46;;;;;;;7.25;5.78;;;19.40;64.30;;;;;;5059915;28;20175;-65
2021/10/08 11:07:16;;;;;;;9.30;6.03;;;19.50;64.20;;;;;;5054132;28;20175;-66
2021/10/08 11:09:43;;;;;;;8.48;6.75;;;19.40;64.70;;;;;;5054224;28;20548;-65
2021/10/08 11:12:40;;;;;;;6.80;6.10;;;19.40;64.30;;;;;;5053764;28;20179;-66
2021/10/08 11:15:17;;;;;;;6.40;5.80;;;19.50;64.30;;;;;;5053929;28;20198;-65
2021/10/08 11:17:58;;;;;;;6.72;5.93;;;19.50;64.40;;;;;;5053630;28;20194;-65
2021/10/08 11:20:37;;;;;;;8.38;4.97;;;19.50;64.50;;;;;;5054326;28;20198;-66
2021/10/08 11:23:07;;;;;;;6.45;5.30;;;19.50;64.50;;;;;;5053494;28;20288;-66
2021/10/08 11:25:49;;;;;;;5.78;5.18;;;19.60;64.50;;;;;;5053131;28;20548;-65
2021/10/08 11:28:15;;;;;;;5.93;4.63;;;19.60;64.70;;;;;;5054136;28;20183;-65
2021/10/08 11:30:40;;;;;;;10.05;5.43;;;19.60;64.50;;;;;;5054018;28;20297;-65
2021/10/08 11:33:06;;;;;;;8.18;5.60;;;19.70;64.50;;;;;;5052925;28;20209;-65
2021/10/08 11:35:32;;;;;;;5.70;5.20;;;19.70;64.60;;;;;;5053898;28;20265;-66
2021/10/08 11:37:58;;;;;;;6.43;5.07;;;19.70;64.60;;;;;;5052578;28;20692;-64
2021/10/08 11:40:31;;;;;;;5.72;5.03;;;19.70;64.60;;;;;;5053573;28;20557;-66
2021/10/08 11:43:15;;;;;;;5.43;4.90;;;19.70;64.40;;;;;;5053021;28;20175;-66
2021/10/08 11:45:48;;;;;;;7.03;5.30;;;19.70;64.40;;;;;;5052744;28;20183;-65
2021/10/08 11:53:17;;;;;;;6.78;5.70;;;19.80;64.30;;;;;;5052979;28;20175;-65
2021/10/08 11:55:43;;;;;;;6.40;5.75;;;19.80;64.40;;;;;;5053376;28;20218;-66
2021/10/08 11:58:10;;;;;;;4.95;4.25;;;19.90;64.50;;;;;;5053133;28;20254;-67
2021/10/08 12:00:36;;;;;;;5.93;5.15;;;19.80;64.60;;;;;;5032685;28;20194;-66
2021/10/08 12:03:09;;;;;;;5.95;4.43;;;19.70;64.30;;;;;;5033090;28;20172;-67
2021/10/08 12:05:50;;;;;;;5.55;4.90;;;19.80;64.50;;;;;;5033582;28;20176;-66
2021/10/08 12:08:18;;;;;;;6.10;5.50;;;19.80;64.40;;;;;;5032465;28;20613;-66
2021/10/08 12:11:18;;;;;;;5.95;5.28;;;19.80;64.30;;;;;;5033301;28;20234;-66
2021/10/08 12:13:53;;;;;;;5.40;4.90;;;19.70;64.30;;;;;;5032675;28;20171;-66
2021/10/08 12:16:25;;;;;;;6.03;4.82;;;19.70;64.30;;;;;;5031939;28;20218;-66
2021/10/08 12:18:56;;;;;;;6.05;4.88;;;19.70;64.40;;;;;;5032868;28;20172;-67
2021/10/08 12:21:23;;;;;;;5.60;5.03;;;19.70;64.40;;;;;;5036041;28;20194;-66
2021/10/08 12:23:55;;;;;;;5.20;4.75;;;19.70;64.40;;;;;;5034090;28;20227;-67
2021/10/08 12:26:21;;;;;;;5.88;5.20;;;19.70;64.30;;;;;;5033151;28;20180;-68
2021/10/08 12:28:54;;;;;;;7.30;4.55;;;19.80;64.50;;;;;;5031274;28;20262;-67
2021/10/08 12:31:20;;;;;;;5.45;4.95;;;19.80;64.40;;;;;;5032888;28;20544;-67
2021/10/08 12:33:47;;;;;;;6.82;4.68;;;19.80;64.40;;;;;;5032947;28;20557;-67
2021/10/08 12:36:21;;;;;;;5.25;4.70;;;19.80;64.30;;;;;;5031983;28;20211;-67
2021/10/08 12:39:08;;;;;;;6.20;4.68;;;19.80;64.30;;;;;;5033040;28;20187;-66
2021/10/08 12:41:47;;;;;;;5.03;4.18;;;19.80;64.50;;;;;;5032077;28;20702;-65
2021/10/08 12:44:24;;;;;;;9.00;4.82;;;19.80;64.20;;;;;;5032827;28;20205;-65
2021/10/08 12:46:59;;;;;;;5.60;5.03;;;19.90;64.10;;;;;;5032463;28;20629;-64
2021/10/08 12:49:25;;;;;;;5.28;4.38;;;20.00;64.00;;;;;;5032157;28;20262;-65
2021/10/08 12:51:52;;;;;;;4.82;4.35;;;20.00;64.00;;;;;;5031320;28;20207;-64
2021/10/08 12:54:25;;;;;;;4.90;4.30;;;20.10;64.00;;;;;;5032840;28;20190;-65
2021/10/08 12:57:16;;;;;;;5.40;4.30;;;20.10;63.90;;;;;;5035720;28;20203;-64